This is the latest recevied weather packets stored in our database for station/object KE1THD. If no packets are shown the sender has not sent any weather packets the latest 1 day(s).
| Time | Temp. | Humidity | Pressure | Rain* | Wind** | Luminosity | Snow |
|---|---|---|---|---|---|---|---|
| 1778031452 | 11.11° C | 53% | 1009.4 hPa | 0 mm | 0 m/s | 0 W/m² | - |
| 1778031149 | 11.11° C | 53% | 1009.4 hPa | 0 mm | 0 m/s | 0 W/m² | - |
| 1778030845 | 11.11° C | 54% | 1009.4 hPa | 0 mm | 0 m/s | 0 W/m² | - |
| 1778030543 | 11.67° C | 55% | 1009.6 hPa | 0 mm | 0.45 m/s, 193° | 0 W/m² | - |
| 1778030240 | 11.67° C | 52% | 1009.3 hPa | 0 mm | 0 m/s | 0 W/m² | - |
| 1778029936 | 11.67° C | 52% | 1009.2 hPa | 0 mm | 0.45 m/s, 200° | 0 W/m² | - |
| 1778029635 | 11.67° C | 50% | 1009.1 hPa | 0 mm | 0 m/s | 0 W/m² | - |
| 1778029331 | 12.22° C | 50% | 1008.9 hPa | 0 mm | 0 m/s | 0 W/m² | - |
| 1778029029 | 12.78° C | 48% | 1009.2 hPa | 0 mm | 0 m/s | 2 W/m² | - |
| 1778028725 | 13.33° C | 41% | 1009.1 hPa | 0 mm | 0 m/s | 4 W/m² | - |
| 1778028421 | 13.33° C | 40% | 1009.4 hPa | 0 mm | 0.45 m/s, 218° | 6 W/m² | - |
| 1778028119 | 13.33° C | 40% | 1009.1 hPa | 0 mm | 0.45 m/s, 234° | 8 W/m² | - |
| 1778027815 | 13.33° C | 40% | 1009.1 hPa | 0 mm | 0.45 m/s, 230° | 12 W/m² | - |
| 1778027511 | 13.33° C | 39% | 1009.1 hPa | 0 mm | 0.45 m/s, 209° | 17 W/m² | - |
| 1778027207 | 13.89° C | 40% | 1008.8 hPa | 0 mm | 0 m/s | 26 W/m² | - |
| 1778026903 | 13.89° C | 39% | 1009.1 hPa | 0 mm | 0 m/s | 35 W/m² | - |
| 1778026599 | 13.89° C | 38% | 1009 hPa | 0 mm | 0.45 m/s, 218° | 39 W/m² | - |
| 1778026297 | 13.89° C | 38% | 1009 hPa | 0 mm | 0.89 m/s, 270° | 41 W/m² | - |
| 1778025994 | 13.89° C | 37% | 1008.9 hPa | 0 mm | 1.34 m/s, 332° | 46 W/m² | - |
| 1778025691 | 13.89° C | 37% | 1009.2 hPa | 0 mm | 1.34 m/s, 328° | 52 W/m² | - |
| 1778025389 | 13.89° C | 38% | 1008.8 hPa | 0 mm | 0.89 m/s, 263° | 66 W/m² | - |
| 1778025086 | 14.44° C | 38% | 1009 hPa | 0 mm | 2.68 m/s, 330° | 80 W/m² | - |
| 1778024783 | 14.44° C | 38% | 1008.9 hPa | 0 mm | 0.89 m/s, 4° | 76 W/m² | - |
| 1778024479 | 14.44° C | 40% | 1008.9 hPa | 0 mm | 0.45 m/s, 293° | 105 W/m² | - |
| 1778024177 | 14.44° C | 40% | 1008.9 hPa | 0 mm | 0.45 m/s, 273° | 98 W/m² | - |
* Rain latest hour (hover to see other rain measurements)
** Current wind speed in m/s (hover to see current wind gust speed)